createdAt,value
2023-11-02T10:19:42.121Z,10.44
2023-11-02T10:22:04.523Z,11.66
2023-11-02T10:24:33.486Z,12.96
2023-11-02T10:26:53.935Z,13.21
2023-11-02T10:29:14.602Z,13.87
2023-11-02T10:31:37.578Z,12.99
2023-11-02T10:34:01.491Z,13.53
2023-11-02T10:36:22.063Z,14.18
2023-11-02T10:38:44.169Z,14.40
2023-11-02T10:41:06.299Z,15.07
2023-11-02T10:43:29.200Z,14.96
2023-11-02T10:45:53.940Z,14.70
2023-11-02T10:48:18.499Z,15.06
2023-11-02T10:50:41.598Z,15.26
2023-11-02T10:53:08.503Z,15.71
2023-11-02T10:55:38.471Z,15.44
2023-11-02T10:58:05.129Z,15.48
2023-11-02T11:00:27.625Z,15.82
2023-11-02T11:02:50.295Z,16.08
2023-11-02T11:05:11.927Z,16.40
2023-11-02T11:07:40.740Z,16.55
2023-11-02T11:10:01.839Z,15.28
2023-11-02T11:12:24.261Z,15.61
2023-11-02T11:14:47.084Z,16.54
2023-11-02T11:17:07.817Z,16.38
2023-11-02T11:19:34.009Z,16.98
2023-11-02T11:21:56.145Z,17.41
2023-11-02T11:24:21.385Z,17.94
2023-11-02T11:26:51.454Z,18.29
2023-11-02T11:29:38.449Z,18.39
2023-11-02T11:31:59.679Z,18.01
2023-11-02T11:34:20.819Z,17.68
2023-11-02T11:36:41.547Z,17.41
2023-11-02T11:39:31.867Z,16.47
2023-11-02T11:41:52.460Z,16.27
2023-11-02T11:44:21.429Z,18.06
2023-11-02T11:46:46.772Z,18.64
2023-11-02T11:49:07.503Z,17.60
2023-11-02T11:51:42.761Z,17.76
2023-11-02T11:54:15.436Z,16.99
2023-11-02T11:56:36.163Z,18.39
2023-11-02T11:58:58.856Z,18.77
2023-11-02T12:01:20.988Z,19.82
2023-11-02T12:03:43.325Z,19.32
2023-11-02T12:06:11.364Z,17.93
2023-11-02T12:08:33.110Z,18.80
2023-11-02T12:10:56.984Z,19.52
2023-11-02T12:13:17.784Z,19.78
2023-11-02T12:15:51.915Z,20.30
2023-11-02T12:18:14.408Z,20.56
2023-11-02T12:20:37.488Z,21.62
2023-11-02T12:22:58.726Z,22.43
2023-11-02T12:25:19.425Z,21.67
2023-11-02T12:27:39.847Z,23.18
2023-11-02T12:30:00.981Z,23.57
2023-11-02T12:32:21.422Z,23.98
2023-11-02T12:34:42.025Z,23.89
2023-11-02T12:37:02.593Z,24.34
2023-11-02T12:39:23.329Z,24.48
2023-11-02T12:41:46.379Z,24.34
2023-11-02T12:44:15.713Z,23.97
2023-11-02T12:46:43.519Z,24.40
2023-11-02T12:49:18.968Z,24.85
2023-11-02T12:51:40.136Z,24.18
2023-11-02T12:54:09.352Z,24.18
2023-11-02T12:56:30.483Z,24.86
2023-11-02T12:58:59.906Z,24.54
2023-11-02T13:01:20.450Z,25.69
2023-11-02T13:03:59.938Z,26.17
2023-11-02T13:06:24.394Z,26.62
2023-11-02T13:08:45.374Z,26.29
2023-11-02T13:11:06.737Z,26.18
2023-11-02T13:13:28.416Z,26.34
2023-11-02T13:15:49.709Z,26.21
2023-11-02T13:18:10.779Z,26.49
2023-11-02T13:20:32.831Z,26.19
2023-11-02T13:22:53.425Z,26.12
2023-11-02T13:25:17.010Z,26.80
2023-11-02T13:27:38.337Z,27.42
2023-11-02T13:30:00.871Z,27.62
2023-11-02T13:32:21.670Z,27.56
2023-11-02T13:34:43.207Z,27.37
2023-11-02T13:37:04.105Z,27.26
2023-11-02T13:39:26.124Z,28.27
2023-11-02T13:41:46.980Z,27.91
2023-11-02T13:44:07.460Z,28.09
2023-11-02T13:46:29.426Z,28.46
2023-11-02T13:48:50.239Z,28.30
2023-11-02T13:51:11.274Z,27.93
2023-11-02T13:53:33.175Z,28.39
2023-11-02T13:55:55.110Z,28.69
2023-11-02T13:58:15.692Z,28.72
2023-11-02T14:00:36.743Z,28.92
2023-11-02T14:02:57.477Z,27.80
2023-11-02T14:05:18.812Z,28.27
2023-11-02T14:07:40.094Z,27.52
2023-11-02T14:10:00.940Z,27.14
2023-11-02T14:12:24.952Z,26.86
2023-11-02T14:14:45.487Z,26.93
2023-11-02T14:17:06.343Z,26.76
2023-11-02T14:19:27.227Z,26.40
2023-11-02T14:21:47.644Z,26.67
2023-11-02T14:24:08.810Z,26.87
2023-11-02T14:26:29.769Z,26.91
2023-11-02T14:28:51.667Z,26.13
2023-11-02T14:31:13.942Z,26.45
2023-11-02T14:33:34.356Z,26.62
2023-11-02T14:35:55.011Z,26.88
2023-11-02T14:38:15.748Z,26.82
2023-11-02T14:40:37.559Z,26.40
2023-11-02T14:43:01.184Z,26.41
2023-11-02T14:45:21.800Z,26.19
2023-11-02T14:47:43.940Z,26.41
2023-11-02T14:50:05.332Z,26.36
2023-11-02T14:52:26.139Z,26.32
2023-11-02T14:54:53.331Z,26.82
2023-11-02T14:57:19.464Z,26.37
2023-11-02T14:59:40.169Z,26.20
2023-11-02T15:02:02.996Z,25.61
2023-11-02T15:04:25.186Z,25.68
2023-11-02T15:06:46.412Z,25.88
2023-11-02T15:09:10.669Z,26.17
2023-11-02T15:11:31.505Z,25.92
2023-11-02T15:13:52.060Z,25.98
2023-11-02T15:16:12.792Z,25.93
2023-11-02T15:18:33.555Z,25.97
2023-11-02T15:20:54.136Z,26.00
2023-11-02T15:23:14.857Z,25.89
2023-11-02T15:25:35.373Z,25.93
2023-11-02T15:27:55.789Z,25.82
2023-11-02T15:30:17.476Z,25.75
2023-11-02T15:32:41.356Z,25.76
2023-11-02T15:35:01.982Z,25.93
2023-11-02T15:37:27.161Z,25.38
2023-11-02T15:39:48.106Z,25.20
2023-11-02T15:42:11.013Z,25.25
2023-11-02T15:44:31.964Z,25.24
2023-11-02T15:46:53.284Z,25.64
2023-11-02T15:49:14.264Z,25.20
2023-11-02T15:51:35.773Z,24.96
2023-11-02T15:53:56.558Z,25.29
2023-11-02T15:56:17.939Z,25.28
2023-11-02T15:58:38.908Z,25.13
2023-11-02T16:00:59.857Z,24.74
2023-11-02T16:03:20.780Z,24.68
2023-11-02T16:05:41.317Z,24.57
2023-11-02T16:08:01.865Z,25.00
2023-11-02T16:10:22.367Z,24.62
2023-11-02T16:12:43.379Z,24.51
2023-11-02T16:15:06.070Z,24.09
2023-11-02T16:17:27.245Z,24.60
2023-11-02T16:19:47.925Z,24.30
2023-11-02T16:22:08.371Z,24.15
2023-11-02T16:24:28.925Z,24.37
2023-11-02T16:26:50.876Z,24.16
2023-11-02T16:29:12.020Z,23.97
2023-11-02T16:31:32.585Z,23.44
2023-11-02T16:33:56.284Z,23.86
2023-11-02T16:36:46.157Z,23.85
2023-11-02T16:39:08.019Z,24.18
2023-11-02T16:41:29.633Z,23.81
2023-11-02T16:43:50.627Z,23.47
2023-11-02T16:46:12.009Z,23.80
2023-11-02T16:48:32.858Z,24.08
2023-11-02T16:50:53.214Z,24.08
2023-11-02T16:53:13.690Z,23.76
2023-11-02T16:55:35.598Z,23.58
2023-11-02T16:57:56.411Z,23.80
2023-11-02T17:00:18.503Z,23.99
2023-11-02T17:02:42.895Z,23.66
2023-11-02T17:05:03.697Z,23.84
2023-11-02T17:07:24.773Z,24.31
2023-11-02T17:09:45.317Z,24.36
2023-11-02T17:12:07.796Z,24.33
2023-11-02T17:14:28.494Z,24.53
2023-11-02T17:16:48.926Z,24.23
2023-11-02T17:19:11.024Z,24.44
2023-11-02T17:21:32.428Z,24.05
2023-11-02T17:23:57.373Z,24.12
2023-11-02T17:26:18.306Z,23.82
2023-11-02T17:28:40.929Z,23.74
2023-11-02T17:31:01.860Z,23.92
2023-11-02T17:33:22.501Z,23.65
2023-11-02T17:35:43.210Z,23.76
2023-11-02T17:38:04.049Z,23.37
2023-11-02T17:40:24.517Z,23.09
2023-11-02T17:42:45.257Z,23.55
2023-11-02T17:45:07.048Z,23.90
2023-11-02T17:47:27.928Z,24.13
2023-11-02T17:49:48.715Z,24.13
2023-11-02T17:52:09.167Z,24.27
2023-11-02T17:54:29.744Z,24.52
2023-11-02T17:56:50.282Z,24.14
2023-11-02T17:59:11.328Z,24.50
2023-11-02T18:01:32.009Z,24.37
2023-11-02T18:03:52.657Z,24.40
2023-11-02T18:06:13.316Z,23.58
2023-11-02T18:08:34.200Z,23.54
2023-11-02T18:10:54.900Z,23.16
2023-11-02T18:13:15.657Z,22.76
2023-11-02T18:15:37.370Z,22.65
2023-11-02T18:17:58.153Z,23.33
2023-11-02T18:20:19.145Z,22.58
2023-11-02T18:22:40.415Z,22.25
2023-11-02T18:25:01.036Z,22.50
2023-11-02T18:27:21.814Z,23.12
2023-11-02T18:29:42.359Z,22.46
2023-11-02T18:32:04.209Z,22.52
2023-11-02T18:34:24.730Z,22.70
2023-11-02T18:36:45.302Z,22.48
2023-11-02T18:39:05.785Z,22.26
2023-11-02T18:41:27.149Z,22.41
2023-11-02T18:43:47.560Z,22.35
2023-11-02T18:46:17.805Z,22.04
2023-11-02T18:48:38.419Z,21.75
2023-11-02T18:50:58.881Z,21.42
2023-11-02T18:53:19.267Z,21.68
2023-11-02T18:55:40.057Z,22.02
2023-11-02T18:58:00.792Z,21.39
2023-11-02T19:00:22.191Z,20.90
2023-11-02T19:02:43.002Z,21.22
2023-11-02T19:05:06.461Z,21.36
2023-11-02T19:07:27.196Z,21.63
2023-11-02T19:09:48.157Z,21.73
2023-11-02T19:12:09.040Z,21.60
2023-11-02T19:14:33.437Z,20.82
2023-11-02T19:16:54.070Z,21.37
2023-11-02T19:19:14.867Z,21.39
2023-11-02T19:21:39.560Z,21.48
2023-11-02T19:24:00.120Z,22.12
2023-11-02T19:26:22.796Z,22.13
2023-11-02T19:28:43.379Z,22.05
2023-11-02T19:31:04.197Z,21.83
2023-11-02T19:33:24.885Z,21.78
2023-11-02T19:35:47.334Z,21.91
2023-11-02T19:38:07.969Z,22.10
2023-11-02T19:40:28.936Z,22.30
2023-11-02T19:42:50.147Z,22.41
2023-11-02T19:45:11.106Z,21.81
2023-11-02T19:47:31.905Z,22.17
2023-11-02T19:49:52.840Z,22.13
2023-11-02T19:52:13.860Z,22.09
2023-11-02T19:54:34.699Z,22.15
2023-11-02T19:56:56.978Z,22.37
2023-11-02T19:59:17.515Z,22.44
2023-11-02T20:01:38.165Z,22.27
2023-11-02T20:04:00.506Z,22.68
2023-11-02T20:06:20.904Z,22.74
2023-11-02T20:08:42.355Z,22.42
2023-11-02T20:11:04.429Z,22.68
2023-11-02T20:13:26.369Z,22.59
2023-11-02T20:15:48.112Z,22.53
2023-11-02T20:18:08.903Z,22.58
2023-11-02T20:20:31.010Z,22.76
2023-11-02T20:22:51.836Z,22.60
2023-11-02T20:25:12.669Z,22.61
2023-11-02T20:27:33.275Z,22.87
2023-11-02T20:29:53.671Z,22.73
2023-11-02T20:32:14.342Z,22.38
2023-11-02T20:34:35.142Z,22.61
2023-11-02T20:36:55.984Z,22.49
2023-11-02T20:39:16.398Z,22.60
2023-11-02T20:41:36.993Z,22.31
2023-11-02T20:43:57.588Z,22.13
2023-11-02T20:46:19.566Z,22.32
2023-11-02T20:48:40.443Z,22.46
2023-11-02T20:51:01.326Z,22.46
2023-11-02T20:53:22.638Z,22.33
2023-11-02T20:55:43.183Z,22.29
2023-11-02T20:58:03.937Z,22.23
2023-11-02T21:00:24.636Z,22.05
2023-11-02T21:02:45.412Z,22.20
2023-11-02T21:05:06.716Z,22.27
2023-11-02T21:07:27.901Z,22.27
2023-11-02T21:09:48.987Z,21.88
2023-11-02T21:12:10.858Z,21.89
2023-11-02T21:14:31.357Z,21.86
2023-11-02T21:16:52.460Z,21.75
2023-11-02T21:19:13.379Z,21.48
2023-11-02T21:21:34.091Z,21.53
2023-11-02T21:23:54.813Z,21.29
2023-11-02T21:26:15.370Z,21.40
2023-11-02T21:28:35.764Z,21.31
2023-11-02T21:30:56.388Z,21.34
2023-11-02T21:33:16.925Z,21.03
2023-11-02T21:35:37.373Z,21.08
2023-11-02T21:37:58.117Z,20.90
2023-11-02T21:40:19.028Z,20.76
2023-11-02T21:42:40.652Z,20.54
2023-11-02T21:45:01.275Z,20.74
2023-11-02T21:47:21.990Z,21.02
2023-11-02T21:49:42.805Z,21.08
2023-11-02T21:52:03.783Z,21.04
2023-11-02T21:54:24.222Z,20.98
2023-11-02T21:56:44.775Z,21.08
2023-11-02T21:59:12.374Z,21.23
2023-11-02T22:01:33.037Z,21.31
2023-11-02T22:03:53.575Z,21.14
2023-11-02T22:06:13.997Z,20.92
2023-11-02T22:08:34.638Z,20.79
2023-11-02T22:10:55.245Z,20.85
2023-11-02T22:13:15.929Z,20.97
2023-11-02T22:15:36.499Z,20.99
2023-11-02T22:17:57.485Z,21.30
2023-11-02T22:20:18.113Z,21.15
2023-11-02T22:22:40.014Z,20.88
2023-11-02T22:25:00.863Z,20.94
2023-11-02T22:27:21.613Z,20.85
2023-11-02T22:29:42.375Z,20.95
2023-11-02T22:32:03.176Z,21.09
2023-11-02T22:34:24.051Z,21.23
2023-11-02T22:36:44.886Z,21.17
2023-11-02T22:39:05.809Z,21.36
2023-11-02T22:41:27.059Z,21.24
2023-11-02T22:43:48.191Z,20.94
2023-11-02T22:46:09.261Z,20.66
2023-11-02T22:48:30.301Z,20.98
2023-11-02T22:50:51.071Z,20.95
2023-11-02T22:53:11.591Z,20.90
2023-11-02T22:55:32.686Z,20.58
2023-11-02T22:57:53.397Z,20.60
2023-11-02T23:00:24.788Z,20.69
2023-11-02T23:02:45.564Z,20.81
2023-11-02T23:05:07.048Z,20.56
2023-11-02T23:07:27.895Z,20.59
2023-11-02T23:09:48.508Z,20.64
2023-11-02T23:12:09.341Z,20.74
2023-11-02T23:14:30.022Z,20.66
2023-11-02T23:16:52.191Z,20.63
2023-11-02T23:19:12.751Z,20.62
2023-11-02T23:21:33.485Z,20.77
2023-11-02T23:23:54.117Z,20.66
2023-11-02T23:26:15.053Z,20.26
2023-11-02T23:28:36.803Z,20.30
2023-11-02T23:30:57.345Z,20.32
2023-11-02T23:33:17.960Z,20.26
2023-11-02T23:35:38.407Z,20.31
2023-11-02T23:37:59.561Z,20.30
2023-11-02T23:40:20.821Z,20.64
2023-11-02T23:42:43.051Z,20.55
2023-11-02T23:45:04.115Z,20.34
2023-11-02T23:47:25.164Z,20.17
2023-11-02T23:49:45.668Z,20.25
2023-11-02T23:52:06.379Z,20.33
2023-11-02T23:54:27.024Z,20.27
2023-11-02T23:56:48.032Z,20.37
2023-11-02T23:59:08.457Z,20.26
